Terminal Aerodrome Forecast
Issued by NWS

Current Version | Previous Version | Text Only | Print | Product List | Glossary On
Versions: 1 2 3 4 5 6 7 8 9 10 11 12 13 14 15 16 17 18 19 20 21 22 23
000 FTUS41 KGYX 021130 AAC TAFLEB TAF AMD KLEB 021130Z 0212/0306 00000KT 4SM BR BKN003 TEMPO 0212/0213 2SM BR BKN009 FM021330 20005KT P6SM BKN060 FM022100 24005KT P6SM SCT030 TEMPO 0221/0301 5SM -TSRA BR BKN030CB FM030300 VRB03KT 1SM BR BKN005=

USA.gov is the U.S. government's official web portal to all federal, state and local government web resources and services.